Lone Rock, Iowa
Current Conditions -  °F | °C
As of 10:35 PM on Saturday 20 Dec 2014 (Local Time) from KAXA Reporting Station
Haze Haze  
Wind Chill: 22°   Ceiling: 700
Heat Index: 32°   Visibility: 5mi
Dew Point: 32°   Wind: 14mph
Humidity: 100%   Direction: 170°S
Pressure: 30.05"   Gusts: NA
Location:  43.22°N, 94.33°W
Report Text: KAXA 210435Z AUTO 17012KT 5SM BR OVC007 00/00 A3005 RMK AO2
Loading
Personal Weather Stations






























Interactive Weather Map New forecast layout! Learn more

10-Day Weather Forecast

Advertisements
Track Severe Weather on mobile